Bei Facebook empfehlenBei Twitter postenGoogle plusPinterest

Das Wetter im Erzgebirge am 18.07.2015

Wetter und Klima am 18.07.2015 Holzhau im Erzgebirge (630m ü.NN)
Letzte gemessene Temperatur und Uhrzeit der Messung23:45:00 Uhr16.90 °C
Temperatur (Maximum / Höchstwert) und Uhrzeit der Messung14:30:00 Uhr30.80 °C
Temperatur (Minimum / Tiefstwert) und Uhrzeit der Messung05:15:0016.40 °C
Errechneter Absolutwert der Temperaturschwankungen zwischen Tmin und Tmax des Tages14.40 K
Errechnete Tagesmitteltemperatur22.97813 °C
Gesamt - Niederschlag des Tages (in flüssiger Form)0.00 Liter / m²
Luftdruck (Maximum / Höchstwert) und Zeitpunkt der Messung15:00:00 Uhr1016.30 hPa
Luftdruck (Minimum / Tiefstwert) und Zeitpunkt der Messung07:15:00 Uhr1014.50 hPa
Errechneter Absolutwert der Luftdruckschwankungen des Tages1.80 hPa
Höchste gemessene Windgeschwindigkeit und Uhrzeit der Messung13:45:00 Uhr15.84 km/h
Errechnete Windhäufigkeit in Relation zu den Messwerten des Tages9.37500 %
Niedrigste Windkühle (Windchill) und Zeitpunkt der Messung05:15:00 Uhr16.40 °C
Taupunkt (Maximum / Höchstwert) und Uhrzeit der Messung16:00:00 Uhr18.70 °C
Taupunkt (Minimum / Tiefstwert) und Uhrzeit der Messung04:15:0013.60 °C
Anzahl der automatisch eingelesenen Messwerte 96

Detaillierte Wetter- und Klima- Messwerte für den 18.07.2015 in Holzhau im Erzgebirge (630m ü.NN)
ZeitTemperaturLuftdruckRel. LuftfeuchteWindWindrichtungWindchillTaupunktNiederschlag l/m²
23:45:0016.90 °C1015.90 hPa82.00 %13.80 °C 
23:30:0017.20 °C1016.00 hPa81.00 %13.90 °C 
23:15:0017.60 °C1016.10 hPa80.00 %14.10 °C 
23:00:0017.70 °C1016.20 hPa78.00 %13.80 °C 
22:45:0017.80 °C1016.00 hPa78.00 %13.90 °C 
22:30:0018.20 °C1015.80 hPa77.00 %14.10 °C 
22:15:0018.90 °C1015.90 hPa74.00 %14.20 °C 
22:00:0019.80 °C1015.70 hPa73.00 %14.80 °C 
21:45:0020.60 °C1015.70 hPa70.00 %14.90 °C 
21:30:0021.40 °C1015.70 hPa69.00 %15.50 °C 
21:15:0022.20 °C1015.30 hPa67.00 %15.80 °C 
21:00:0023.00 °C1015.40 hPa65.00 %16.10 °C 
20:45:0023.70 °C1015.10 hPa64.00 %16.50 °C 
20:30:0023.60 °C1015.20 hPa62.00 %15.90 °C 
20:15:0023.40 °C1015.10 hPa64.00 %16.20 °C 
20:00:0023.40 °C1015.10 hPa65.00 %16.40 °C 
19:45:0023.80 °C1015.10 hPa66.00 %17.10 °C 
19:30:0024.20 °C1015.10 hPa66.00 %17.40 °C 
19:15:0024.40 °C1015.30 hPa65.00 %17.40 °C 
19:00:0024.70 °C1015.20 hPa65.00 %17.70 °C 
18:45:0024.80 °C1015.30 hPa63.00 %17.30 °C 
18:30:0025.00 °C1015.70 hPa63.00 %17.50 °C 
18:15:0025.20 °C1015.90 hPa62.00 %17.40 °C 
18:00:0025.50 °C1015.90 hPa62.00 %17.70 °C 
17:45:0025.70 °C1015.90 hPa62.00 %17.90 °C 
17:30:0025.60 °C1015.90 hPa60.00 %17.30 °C 
17:15:0027.40 °C1016.10 hPa54.00 %5.76 km/hWSW29.50 °C17.30 °C 
17:00:0029.20 °C1015.70 hPa51.00 %18.00 °C 
16:45:0028.90 °C1015.90 hPa53.00 %18.40 °C 
16:30:0028.40 °C1015.90 hPa54.00 %18.20 °C 
16:15:0028.90 °C1015.90 hPa52.00 %18.10 °C 
16:00:0029.30 °C1015.90 hPa53.00 %18.70 °C 
15:45:0028.40 °C1015.90 hPa53.00 %17.90 °C 
15:30:0028.90 °C1016.10 hPa50.00 %17.40 °C 
15:15:0029.70 °C1016.10 hPa48.00 %17.50 °C 
15:00:0030.20 °C1016.30 hPa48.00 %18.00 °C 
14:45:0030.50 °C1016.10 hPa45.00 %17.20 °C 
14:30:0030.80 °C1016.10 hPa46.00 %17.80 °C 
14:15:0030.10 °C1015.90 hPa48.00 %17.90 °C 
14:00:0029.30 °C1016.30 hPa47.00 %16.80 °C 
13:45:0029.40 °C1016.20 hPa49.00 %15.84 km/hS31.80 °C17.60 °C 
13:30:0029.40 °C1016.00 hPa50.00 %17.90 °C 
13:15:0029.60 °C1016.00 hPa47.00 %17.10 °C 
13:00:0029.20 °C1016.00 hPa50.00 %17.70 °C 
12:45:0028.90 °C1016.30 hPa49.00 %6.84 km/hNW31.20 °C17.10 °C 
12:30:0028.80 °C1016.00 hPa50.00 %17.30 °C 
12:15:0028.40 °C1016.00 hPa50.00 %17.00 °C 
12:00:0028.30 °C1015.90 hPa49.00 %16.60 °C 
11:45:0027.80 °C1015.80 hPa51.00 %16.70 °C 
11:30:0027.40 °C1015.90 hPa50.00 %16.10 °C 
11:15:0027.80 °C1015.30 hPa48.00 %3.24 km/hW27.80 °C15.80 °C 
11:00:0027.80 °C1015.60 hPa50.00 %2.88 km/hWNW27.80 °C16.40 °C 
10:45:0027.50 °C1015.70 hPa50.00 %5.40 km/hSW29.60 °C16.10 °C 
10:30:0027.90 °C1015.40 hPa47.00 %6.48 km/hNNW30.00 °C15.50 °C 
10:15:0029.60 °C1015.30 hPa49.00 %17.80 °C 
10:00:0028.30 °C1015.10 hPa54.00 %18.10 °C 
09:45:0026.40 °C1014.70 hPa58.00 %17.50 °C 
09:30:0026.00 °C1014.90 hPa56.00 %9.00 km/hWSW27.80 °C16.50 °C 
09:15:0025.80 °C1015.10 hPa56.00 %9.00 km/hSW27.50 °C16.40 °C 
09:00:0025.20 °C1015.30 hPa60.00 %16.90 °C 
08:45:0023.90 °C1015.60 hPa61.00 %15.90 °C 
08:30:0024.30 °C1015.80 hPa60.00 %16.00 °C 
08:15:0023.90 °C1015.90 hPa68.00 %17.60 °C 
08:00:0022.40 °C1015.90 hPa74.00 %17.50 °C 
07:45:0021.90 °C1015.30 hPa73.00 %16.80 °C 
07:30:0021.60 °C1014.90 hPa74.00 %16.80 °C 
07:15:0019.90 °C1014.50 hPa79.00 %16.20 °C 
07:00:0018.90 °C1014.90 hPa80.00 %15.40 °C 
06:45:0018.60 °C1014.70 hPa81.00 %15.30 °C 
06:30:0017.30 °C1014.60 hPa83.00 %14.40 °C 
06:15:0016.90 °C1014.70 hPa83.00 %14.00 °C 
06:00:0016.80 °C1015.00 hPa84.00 %14.10 °C 
05:45:0016.60 °C1015.20 hPa84.00 %13.90 °C 
05:30:0016.50 °C1015.30 hPa84.00 %13.80 °C 
05:15:0016.40 °C1015.20 hPa84.00 %13.70 °C 
05:00:0016.50 °C1015.10 hPa84.00 %13.80 °C 
04:45:0016.40 °C1015.00 hPa84.00 %13.70 °C 
04:30:0016.40 °C1014.90 hPa84.00 %13.70 °C 
04:15:0016.50 °C1014.80 hPa83.00 %13.60 °C 
04:00:0016.60 °C1015.00 hPa83.00 %13.70 °C 
03:45:0016.80 °C1014.90 hPa82.00 %13.70 °C 
03:30:0017.10 °C1015.00 hPa82.00 %14.00 °C 
03:15:0017.20 °C1015.10 hPa81.00 %13.90 °C 
03:00:0017.50 °C1015.00 hPa81.00 %14.20 °C 
02:45:0017.30 °C1014.90 hPa81.00 %14.00 °C 
02:30:0017.30 °C1014.60 hPa81.00 %14.00 °C 
02:15:0017.40 °C1014.80 hPa80.00 %13.90 °C 
02:00:0017.60 °C1014.60 hPa80.00 %14.10 °C 
01:45:0017.80 °C1014.50 hPa79.00 %14.10 °C 
01:30:0017.90 °C1014.80 hPa79.00 %14.20 °C 
01:15:0017.90 °C1014.90 hPa79.00 %14.20 °C 
01:00:0018.10 °C1014.80 hPa79.00 %14.40 °C 
00:45:0018.10 °C1015.20 hPa78.00 %14.20 °C 
00:30:0018.30 °C1015.30 hPa76.00 %14.00 °C 
00:15:0018.60 °C1015.30 hPa75.00 %14.10 °C 
00:00:0018.90 °C1015.30 hPa73.00 %14.00 °C 

Permanenter Link zu dieser Seite: Wetter im Erzgebirge am 18.07.2015
Performance-Info: Die Erstellung der Seite / Statistik(en) / Tabelle(n) erforderte 5 Datenbankserver-Abfrage(n) und dauerte 101 Millisekunden. (Dieser Messwert ist von der Gesamt-Auslastung des Servers abhängig.)
Erzgebirge - Wetter | Erzgebirge - Wetter (Mobilgeräte) | Komplette Klimadatenbank